Time;durP1;ratioP1;P1;durP2;ratioP2;P2;SDS_P1;SDS_P2;PMS_P1;PMS_P2;Temp;Humidity;BMP_temperature;BMP_pressure;BME280_temperature;BME280_humidity;BME280_pressure;Samples;Min_cycle;Max_cycle;Signal;HPM_P1;HPM_P2
2022/02/04 00:01:22;;;;;;;4.5;3.7;;;;;;;;;;;;;
2022/02/04 00:03:42;;;;;;;5;3.9;;;;;;;;;;;;;
2022/02/04 00:07:33;;;;;;;12.4;8.6;;;;;;;;;;;;;
2022/02/04 00:10:02;;;;;;;7.1;5.4;;;;;;;;;;;;;
2022/02/04 00:22:41;;;;;;;9.7;5.8;;;;;;;;;;;;;
2022/02/04 00:24:40;;;;;;;8.4;5.4;;;;;;;;;;;;;
2022/02/04 00:27:15;;;;;;;7.8;5.3;;;;;;;;;;;;;
2022/02/04 00:29:50;;;;;;;8.7;5.9;;;;;;;;;;;;;
2022/02/04 00:32:19;;;;;;;7.7;5.3;;;;;;;;;;;;;
2022/02/04 00:34:49;;;;;;;9.6;6;;;;;;;;;;;;;
2022/02/04 00:37:27;;;;;;;7.9;5.5;;;;;;;;;;;;;
2022/02/04 00:39:56;;;;;;;8.2;5;;;;;;;;;;;;;
2022/02/04 00:42:23;;;;;;;5.8;4.3;;;;;;;;;;;;;
2022/02/04 00:45:11;;;;;;;6;4.5;;;;;;;;;;;;;
2022/02/04 00:47:27;;;;;;;4.4;3.7;;;;;;;;;;;;;
2022/02/04 00:50:00;;;;;;;4.3;3.6;;;;;;;;;;;;;
2022/02/04 00:52:22;;;;;;;6.8;3.9;;;;;;;;;;;;;
2022/02/04 00:54:49;;;;;;;6.4;4;;;;;;;;;;;;;
2022/02/04 00:57:14;;;;;;;5.3;3.6;;;;;;;;;;;;;
2022/02/04 01:26:15;;;;;;;5.6;3.7;;;;;;;;;;;;;
2022/02/04 01:28:38;;;;;;;4.9;3.5;;;;;;;;;;;;;
2022/02/04 01:31:04;;;;;;;5.8;3.9;;;;;;;;;;;;;
2022/02/04 01:33:30;;;;;;;6.2;3.8;;;;;;;;;;;;;
2022/02/04 01:35:58;;;;;;;4.6;3.2;;;;;;;;;;;;;
2022/02/04 01:38:25;;;;;;;3.9;2.8;;;;;;;;;;;;;
2022/02/04 01:40:51;;;;;;;4.7;3;;;;;;;;;;;;;
2022/02/04 01:43:21;;;;;;;6.4;3.2;;;;;;;;;;;;;
2022/02/04 01:45:42;;;;;;;5.9;3.6;;;;;;;;;;;;;
2022/02/04 01:48:07;;;;;;;4.7;3;;;;;;;;;;;;;
2022/02/04 01:50:33;;;;;;;5.6;3.4;;;;;;;;;;;;;
2022/02/04 01:52:58;;;;;;;4.9;3.4;;;;;;;;;;;;;
2022/02/04 01:55:23;;;;;;;4.6;3.2;;;;;;;;;;;;;
2022/02/04 01:57:49;;;;;;;3.4;2.7;;;;;;;;;;;;;
2022/02/04 02:00:15;;;;;;;4.4;3.2;;;;;;;;;;;;;
2022/02/04 02:02:41;;;;;;;4.4;2.9;;;;;;;;;;;;;
2022/02/04 02:05:06;;;;;;;4.3;3;;;;;;;;;;;;;
2022/02/04 02:07:33;;;;;;;3.8;2.9;;;;;;;;;;;;;
2022/02/04 02:10:00;;;;;;;4.3;3;;;;;;;;;;;;;
2022/02/04 02:12:24;;;;;;;3.5;2.8;;;;;;;;;;;;;
2022/02/04 02:14:57;;;;;;;3.8;2.6;;;;;;;;;;;;;
2022/02/04 02:34:46;;;;;;;3.3;2.4;;;;;;;;;;;;;
2022/02/04 02:37:32;;;;;;;4.3;2.6;;;;;;;;;;;;;
2022/02/04 02:40:17;;;;;;;3.3;2.6;;;;;;;;;;;;;
2022/02/04 02:42:09;;;;;;;3.5;2.7;;;;;;;;;;;;;
2022/02/04 02:44:14;;;;;;;3.7;2.7;;;;;;;;;;;;;
2022/02/04 02:51:34;;;;;;;4.3;3.1;;;;;;;;;;;;;
2022/02/04 02:54:06;;;;;;;3.6;2.6;;;;;;;;;;;;;
2022/02/04 02:56:31;;;;;;;2.9;2.4;;;;;;;;;;;;;
2022/02/04 02:58:31;;;;;;;3.4;2.6;;;;;;;;;;;;;
2022/02/04 03:01:01;;;;;;;2.9;2.3;;;;;;;;;;;;;
2022/02/04 03:03:21;;;;;;;2.9;2.2;;;;;;;;;;;;;
2022/02/04 03:05:44;;;;;;;3.8;2.6;;;;;;;;;;;;;
2022/02/04 03:08:09;;;;;;;3.2;2.6;;;;;;;;;;;;;
2022/02/04 03:10:35;;;;;;;3;2.1;;;;;;;;;;;;;
2022/02/04 03:13:00;;;;;;;2.6;2.2;;;;;;;;;;;;;
2022/02/04 03:15:26;;;;;;;3.3;2.5;;;;;;;;;;;;;
2022/02/04 03:17:59;;;;;;;4.5;3.1;;;;;;;;;;;;;
2022/02/04 03:20:18;;;;;;;3.9;3.5;;;;;;;;;;;;;
2022/02/04 03:22:45;;;;;;;4.9;3.1;;;;;;;;;;;;;
2022/02/04 03:25:11;;;;;;;3.2;2.7;;;;;;;;;;;;;
2022/02/04 03:27:39;;;;;;;4.9;2.8;;;;;;;;;;;;;
2022/02/04 03:30:05;;;;;;;3.3;2.5;;;;;;;;;;;;;
2022/02/04 03:32:24;;;;;;;2.9;2.3;;;;;;;;;;;;;
2022/02/04 03:34:50;;;;;;;3.4;2.3;;;;;;;;;;;;;
2022/02/04 03:37:15;;;;;;;3.2;2.5;;;;;;;;;;;;;
2022/02/04 03:39:41;;;;;;;2.7;2;;;;;;;;;;;;;
2022/02/04 03:42:06;;;;;;;2.7;2.1;;;;;;;;;;;;;
2022/02/04 03:44:36;;;;;;;3.1;2.3;;;;;;;;;;;;;
2022/02/04 03:46:58;;;;;;;2.7;2.2;;;;;;;;;;;;;
2022/02/04 03:49:25;;;;;;;2.3;1.9;;;;;;;;;;;;;
2022/02/04 03:51:50;;;;;;;2;1.8;;;;;;;;;;;;;
2022/02/04 03:54:16;;;;;;;2.4;1.9;;;;;;;;;;;;;
2022/02/04 03:56:41;;;;;;;2.5;1.9;;;;;;;;;;;;;
2022/02/04 03:59:07;;;;;;;2.4;1.9;;;;;;;;;;;;;
2022/02/04 04:02:37;;;;;;;1.9;1.6;;;;;;;0.54;96.51465;935.9398;;;;
2022/02/04 04:05:02;;;;;;;2.6;2;;;;;;;0.56;96.35156;935.9705;;;;
2022/02/04 04:07:29;;;;;;;2;1.7;;;;;;;0.44;96.8916;936.0405;;;;
2022/02/04 04:10:00;;;;;;;2.1;1.8;;;;;;;0.32;98.05664;936.0029;;;;
2022/02/04 04:12:20;;;;;;;2.1;1.5;;;;;;;0.51;96.92969;936.02;;;;
2022/02/04 04:14:52;;;;;;;1.9;1.7;;;;;;;0.53;96.31836;936.0302;;;;
2022/02/04 04:17:16;;;;;;;2.4;1.7;;;;;;;0.6;95.8125;936.0911;;;;
2022/02/04 04:19:46;;;;;;;1.9;1.7;;;;;;;0.63;95.02734;936.1297;;;;
2022/02/04 04:22:15;;;;;;;4.7;2.4;;;;;;;0.6;95.84668;936.1844;;;;
2022/02/04 04:24:41;;;;;;;2.6;2.1;;;;;;;0.66;95.61133;936.1172;;;;
2022/02/04 04:27:09;;;;;;;4.7;2.6;;;;;;;0.43;96.3877;936.207;;;;
2022/02/04 04:29:38;;;;;;;2.6;2.3;;;;;;;0.5;96.1582;936.1371;;;;
2022/02/04 04:32:03;;;;;;;2.9;2.4;;;;;;;0.7;95.42285;936.2076;;;;
2022/02/04 04:34:31;;;;;;;2.5;2.3;;;;;;;0.57;95.61719;936.1479;;;;
2022/02/04 04:36:56;;;;;;;3.6;2.4;;;;;;;0.55;95.78906;936.2371;;;;
2022/02/04 04:39:28;;;;;;;2.9;2.2;;;;;;;0.56;96.15039;936.291;;;;
2022/02/04 04:42:05;;;;;;;3.5;2;;;;;;;0.61;95.48047;936.2664;;;;
2022/02/04 04:44:59;;;;;;;2.3;1.8;;;;;;;0.22;94.46777;936.2712;;;;
2022/02/04 05:28:15;;;;;;;5.2;2.8;;;;;;;-0.09;98.99805;936.3912;;;;
2022/02/04 05:30:33;;;;;;;4.4;3.1;;;;;;;-0.11;99.44922;936.3981;;;;
2022/02/04 05:32:58;;;;;;;5.9;3.5;;;;;;;0.05;99.21777;936.3881;;;;
2022/02/04 05:35:27;;;;;;;5.7;3.4;;;;;;;0.06;98.72266;936.37;;;;
2022/02/04 05:38:00;;;;;;;5.9;3.4;;;;;;;0.01;98.68555;936.3988;;;;
2022/02/04 05:40:38;;;;;;;7.1;4.4;;;;;;;-0.04;98.89746;936.3901;;;;
2022/02/04 05:42:59;;;;;;;6.1;4.6;;;;;;;0.05;98.9082;936.3445;;;;
2022/02/04 05:45:23;;;;;;;7;4.6;;;;;;;0.08;98.37012;936.3256;;;;
2022/02/04 05:47:48;;;;;;;6.3;4.7;;;;;;;0.26;97.60742;936.2932;;;;
2022/02/04 05:50:21;;;;;;;6;4.4;;;;;;;0.24;97.25781;936.2758;;;;
2022/02/04 05:52:57;;;;;;;4.5;3.1;;;;;;;0.24;97.05762;936.3022;;;;
2022/02/04 05:55:20;;;;;;;5.3;3.7;;;;;;;0.33;96.6875;936.3463;;;;
2022/02/04 05:57:52;;;;;;;5;4;;;;;;;0.39;95.92188;936.3709;;;;
2022/02/04 06:00:17;;;;;;;8.1;3.9;;;;;;;0.42;95.58203;936.3961;;;;
2022/02/04 06:02:32;;;;;;;7.3;4.7;;;;;;;0.43;95.56445;936.3677;;;;
2022/02/04 06:04:56;;;;;;;9.1;5.2;;;;;;;0.48;95.22852;936.322;;;;
2022/02/04 06:07:28;;;;;;;12.3;6.5;;;;;;;0.41;95.17871;936.3894;;;;
2022/02/04 06:12:50;;;;;;;12.2;8;;;;;;;0.51;94.64355;936.4815;;;;
2022/02/04 06:14:51;;;;;;;18.8;10.8;;;;;;;0.67;93.85449;936.5159;;;;
2022/02/04 06:22:19;;;;;;;14.7;8.5;;;;;;;0.51;93.81836;936.4781;;;;
2022/02/04 06:24:23;;;;;;;11.7;6.9;;;;;;;0.52;93.58594;936.4567;;;;
2022/02/04 06:26:51;;;;;;;13.8;7.3;;;;;;;0.53;93.39648;936.4656;;;;
2022/02/04 06:29:13;;;;;;;15.7;8.1;;;;;;;0.6;93.00195;936.4191;;;;
2022/02/04 06:31:41;;;;;;;11.2;6.3;;;;;;;0.63;93.24219;936.4744;;;;
2022/02/04 06:34:12;;;;;;;7.8;5.4;;;;;;;0.55;93.57227;936.5444;;;;
2022/02/04 06:36:42;;;;;;;15.4;10.4;;;;;;;0.62;93.13965;936.5849;;;;
2022/02/04 06:39:12;;;;;;;9.8;6.6;;;;;;;0.5;93.08008;936.5833;;;;
2022/02/04 06:41:37;;;;;;;34.4;21.7;;;;;;;0.54;92.75391;936.6722;;;;
2022/02/04 06:44:06;;;;;;;38.3;25.2;;;;;;;0.52;93.06152;936.6337;;;;
2022/02/04 06:46:30;;;;;;;26.5;18.1;;;;;;;0.56;92.72656;936.5314;;;;
2022/02/04 06:48:58;;;;;;;15.4;10.2;;;;;;;0.58;93.05176;936.6372;;;;
2022/02/04 06:51:27;;;;;;;16.4;11.5;;;;;;;0.26;92.73926;936.6691;;;;
2022/02/04 06:53:52;;;;;;;6.9;6;;;;;;;0.12;92.68262;936.7053;;;;
2022/02/04 06:56:25;;;;;;;7.8;5.7;;;;;;;0.12;92.54004;936.715;;;;
2022/02/04 06:58:54;;;;;;;6.9;5.7;;;;;;;0.06;91.9375;936.7717;;;;
2022/02/04 07:01:27;;;;;;;6.8;5.7;;;;;;;0.01;91.625;936.8663;;;;
2022/02/04 07:03:57;;;;;;;7.5;5.5;;;;;;;0.09;91.62988;936.8871;;;;
2022/02/04 07:06:22;;;;;;;8.5;6.4;;;;;;;0.15;91.7793;936.9512;;;;
2022/02/04 07:09:11;;;;;;;9;6;;;;;;;0.13;92.30762;936.9807;;;;
2022/02/04 07:11:48;;;;;;;7.5;6.2;;;;;;;0.19;92.47754;937.0098;;;;
2022/02/04 07:14:05;;;;;;;8.1;6;;;;;;;0.23;92.10645;937.0574;;;;
2022/02/04 07:16:31;;;;;;;7.4;5.7;;;;;;;0.23;92.6084;937.0959;;;;
2022/02/04 07:21:17;;;;;;;12.9;8.3;;;;;;;0.84;97.23926;937.1889;;;;
2022/02/04 07:23:44;;;;;;;7.8;5;;;;;;;1.68;95.16211;937.1383;;;;
2022/02/04 07:26:10;;;;;;;9.3;4.6;;;;;;;2;90.84766;937.0881;;;;
2022/02/04 07:28:39;;;;;;;6.4;4.7;;;;;;;2.31;85.60449;937.1967;;;;
2022/02/04 07:31:05;;;;;;;7.3;4.2;;;;;;;2.24;84.99609;937.1886;;;;
2022/02/04 07:33:45;;;;;;;9.3;6.1;;;;;;;2.23;84.32227;937.24;;;;
2022/02/04 07:38:48;;;;;;;7.9;5.6;;;;;;;2.61;83.83887;937.2836;;;;
2022/02/04 07:41:04;;;;;;;15.4;10.7;;;;;;;3.01;80.66406;937.1901;;;;
2022/02/04 07:43:24;;;;;;;16.2;12.1;;;;;;;3.21;82.04883;937.2526;;;;
2022/02/04 07:45:52;;;;;;;17.8;12;;;;;;;4.43;77.11914;937.2699;;;;
2022/02/04 07:48:17;;;;;;;20.4;13.1;;;;;;;5.55;71.94824;937.2794;;;;
2022/02/04 07:50:44;;;;;;;17.5;12.3;;;;;;;4.86;73.31836;937.3628;;;;
2022/02/04 07:53:09;;;;;;;16.1;11.2;;;;;;;5.35;72.625;937.3353;;;;
2022/02/04 07:55:37;;;;;;;9.7;7.5;;;;;;;4.59;73.58887;937.3204;;;;
2022/02/04 07:58:02;;;;;;;7.4;5.5;;;;;;;4.32;75.27441;937.2731;;;;
2022/02/04 08:00:34;;;;;;;8.7;6.1;;;;;;;6.23;69.94824;937.2427;;;;
2022/02/04 08:03:02;;;;;;;6.1;4.7;;;;;;;7.68;64.45801;937.1905;;;;
2022/02/04 08:05:32;;;;;;;6.5;5.2;;;;;;;8.78;60.36914;937.1998;;;;
2022/02/04 08:08:01;;;;;;;7.7;5.4;;;;;;;9.58;58.61426;937.247;;;;
2022/02/04 08:10:28;;;;;;;6.9;5.5;;;;;;;10.42;56.27441;937.1948;;;;
2022/02/04 08:13:14;;;;;;;6.8;5.1;;;;;;;10.94;53.08398;937.2294;;;;
2022/02/04 08:15:30;;;;;;;8.5;6.3;;;;;;;11.24;52.74316;937.2556;;;;
2022/02/04 08:18:05;;;;;;;9.4;6.6;;;;;;;10.91;52.14355;937.2595;;;;
2022/02/04 08:22:56;;;;;;;5.9;4.1;;;;;;;11.84;49.87305;937.2639;;;;
2022/02/04 08:25:50;;;;;;;11.2;7.3;;;;;;;11.36;49.88672;937.2673;;;;
2022/02/04 08:28:00;;;;;;;16.7;9.6;;;;;;;11.07;50.61914;937.2129;;;;
2022/02/04 08:32:45;;;;;;;5.9;4.5;;;;;;;10.72;51.9375;937.3113;;;;
2022/02/04 08:37:48;;;;;;;4;3.5;;;;;;;10.99;50.67871;937.3627;;;;
2022/02/04 08:47:37;;;;;;;3.8;3.3;;;;;;;13.62;45.10938;937.3195;;;;
2022/02/04 08:50:10;;;;;;;3.1;2.6;;;;;;;14.85;43.00195;937.3114;;;;
2022/02/04 08:52:28;;;;;;;4.5;3.3;;;;;;;16.49;38.79883;937.2877;;;;
2022/02/04 08:54:33;;;;;;;4.3;2.7;;;;;;;17.77;36.71875;937.3192;;;;
2022/02/04 08:57:01;;;;;;;3.6;2.4;;;;;;;17.61;36.16992;937.243;;;;
2022/02/04 08:59:28;;;;;;;3;2.4;;;;;;;17.3;36.52832;937.3571;;;;
2022/02/04 09:01:52;;;;;;;4.4;3.2;;;;;;;15.95;37.81445;937.2878;;;;
2022/02/04 09:04:15;;;;;;;3.3;2.6;;;;;;;14.75;40.38672;937.3159;;;;
2022/02/04 09:06:40;;;;;;;5;2.8;;;;;;;13.29;44.09961;937.347;;;;
2022/02/04 09:09:02;;;;;;;3.1;2.8;;;;;;;11.53;48.13281;937.3585;;;;
2022/02/04 09:11:43;;;;;;;6.2;4.1;;;;;;;9.3;54.7168;937.4286;;;;
2022/02/04 09:19:11;;;;;;;3.9;2.7;;;;;;;6.52;65.77637;937.3912;;;;
2022/02/04 09:22:03;;;;;;;6.8;4.2;;;;;;;6.76;65.91504;937.3677;;;;
2022/02/04 09:24:04;;;;;;;5.6;4.4;;;;;;;6.47;67.44141;937.2951;;;;
2022/02/04 09:26:29;;;;;;;5.1;4.3;;;;;;;6.45;68.72949;937.2656;;;;
2022/02/04 09:29:00;;;;;;;5.8;4.4;;;;;;;6.24;70.89941;937.3843;;;;
2022/02/04 09:31:33;;;;;;;4.8;3.9;;;;;;;5.85;71.45605;937.384;;;;
2022/02/04 09:34:02;;;;;;;6.6;4.6;;;;;;;4.95;74.09082;937.3693;;;;
2022/02/04 09:36:27;;;;;;;6.3;4.5;;;;;;;4.95;75.25098;937.3773;;;;
2022/02/04 09:38:58;;;;;;;5.2;3.5;;;;;;;4.8;76.51953;937.3614;;;;
2022/02/04 09:41:22;;;;;;;4;3.3;;;;;;;4.69;77.01855;937.2589;;;;
2022/02/04 09:43:51;;;;;;;5.1;3.8;;;;;;;4.69;76.69043;937.2139;;;;
2022/02/04 09:46:17;;;;;;;5;4;;;;;;;4.53;77.10156;937.2846;;;;
2022/02/04 09:48:45;;;;;;;3.8;3.3;;;;;;;4.98;76.98047;937.2557;;;;
2022/02/04 09:51:11;;;;;;;4.9;3.3;;;;;;;5.37;75.27734;937.2078;;;;
2022/02/04 10:08:36;;;;;;;3.1;2.7;;;;;;;7.41;67.7041;937.0997;;;;
2022/02/04 10:11:11;;;;;;;3.1;2.5;;;;;;;8.1;64.82617;937.1445;;;;
2022/02/04 10:15:45;;;;;;;2.9;2.3;;;;;;;8.78;62.45117;937.0784;;;;
2022/02/04 10:18:10;;;;;;;2.4;2.2;;;;;;;9.08;60.40039;936.9885;;;;
2022/02/04 10:20:34;;;;;;;3.2;2.7;;;;;;;9.16;59.74023;936.9942;;;;
2022/02/04 10:22:58;;;;;;;4.9;2.6;;;;;;;9.37;60.04102;937.0066;;;;
2022/02/04 10:25:23;;;;;;;3.4;2.5;;;;;;;9.46;60.18066;936.9698;;;;
2022/02/04 10:27:52;;;;;;;3.2;2.8;;;;;;;9.47;60.27246;936.8594;;;;
2022/02/04 10:30:16;;;;;;;3.4;3.1;;;;;;;9.53;59.80273;936.8777;;;;
2022/02/04 10:32:48;;;;;;;3;2.7;;;;;;;9.88;58.7793;936.8476;;;;
2022/02/04 10:35:13;;;;;;;3.6;3.1;;;;;;;10.08;58.03027;936.8091;;;;
2022/02/04 10:37:40;;;;;;;3.1;2.8;;;;;;;10.44;57.3252;936.8447;;;;
2022/02/04 10:40:12;;;;;;;3;2.7;;;;;;;10.81;55.89063;936.8762;;;;
2022/02/04 10:42:38;;;;;;;3.2;2.4;;;;;;;10.69;54.60645;936.8667;;;;
2022/02/04 10:45:21;;;;;;;3.5;2.5;;;;;;;9.34;60.2666;936.8577;;;;
2022/02/04 10:47:24;;;;;;;3.6;2.7;;;;;;;8.81;61.27246;936.7869;;;;
2022/02/04 10:49:58;;;;;;;3.6;2.8;;;;;;;9.32;60.70801;936.7971;;;;
2022/02/04 10:52:34;;;;;;;4.3;3;;;;;;;9.79;58.57422;936.6284;;;;
2022/02/04 10:55:24;;;;;;;2.8;2.6;;;;;;;9.7;59.62207;936.6635;;;;
2022/02/04 10:57:42;;;;;;;4;3;;;;;;;9.93;58.29492;936.5633;;;;
2022/02/04 10:59:58;;;;;;;2.9;2.6;;;;;;;10.51;56.92383;936.538;;;;
2022/02/04 11:02:16;;;;;;;3.3;3;;;;;;;11.05;54.97266;936.4917;;;;
2022/02/04 11:04:33;;;;;;;3;2.6;;;;;;;11.34;53.88867;936.4741;;;;
2022/02/04 11:07:09;;;;;;;3.7;2.9;;;;;;;11.54;52.50586;936.4686;;;;
2022/02/04 11:09:28;;;;;;;3.6;2.9;;;;;;;11.47;52.47461;936.4341;;;;
2022/02/04 11:12:04;;;;;;;4.1;3.7;;;;;;;11.13;53.12012;936.3948;;;;
2022/02/04 11:31:32;;;;;;;3.8;3.4;;;;;;;9.68;59.92578;936.0192;;;;
2022/02/04 11:33:54;;;;;;;4.2;3.7;;;;;;;9.88;59.32715;935.8997;;;;
2022/02/04 11:36:46;;;;;;;4.6;4.1;;;;;;;10.47;56.81641;935.8508;;;;
2022/02/04 11:51:28;;;;;;;4.6;3.9;;;;;;;9.3;59.55469;935.5789;;;;
2022/02/04 11:54:29;;;;;;;3.1;2.8;;;;;;;9.58;57.99902;935.4808;;;;
2022/02/04 11:56:15;;;;;;;4.4;3.3;;;;;;;9.62;57.46875;935.4408;;;;
2022/02/04 11:58:47;;;;;;;4.9;4.4;;;;;;;10.04;58.8125;935.3284;;;;
2022/02/04 12:01:13;;;;;;;4.4;4;;;;;;;10.85;57.09473;935.2885;;;;
2022/02/04 12:03:43;;;;;;;5.1;4.2;;;;;;;12.94;50.45996;935.2617;;;;
2022/02/04 12:06:14;;;;;;;3.9;3.4;;;;;;;16.57;41.82715;935.0903;;;;
2022/02/04 12:09:19;;;;;;;3.6;3.2;;;;;;;19.24;35.61816;934.9774;;;;
2022/02/04 12:11:44;;;;;;;3.4;3.1;;;;;;;19.7;35.17676;934.8781;;;;
2022/02/04 12:14:11;;;;;;;2.4;2.2;;;;;;;20.79;31.40625;934.8769;;;;
2022/02/04 12:16:40;;;;;;;3;2;;;;;;;23.31;29.13965;934.8474;;;;
2022/02/04 12:19:12;;;;;;;1.9;1.7;;;;;;;22.9;28.66699;934.7051;;;;
2022/02/04 12:21:37;;;;;;;1.6;1.3;;;;;;;25.21;25.80566;934.642;;;;
2022/02/04 12:24:05;;;;;;;1.3;1.2;;;;;;;26.95;23.68945;934.616;;;;
2022/02/04 12:26:33;;;;;;;1.5;1.3;;;;;;;27.68;22.26758;934.4526;;;;
2022/02/04 12:28:58;;;;;;;1.8;1.3;;;;;;;28.06;21.06348;934.4564;;;;
2022/02/04 12:31:26;;;;;;;1.2;1.1;;;;;;;25.4;23.79688;934.3918;;;;
2022/02/04 12:33:55;;;;;;;1.5;1.4;;;;;;;26.08;23.63184;934.2981;;;;
2022/02/04 12:36:19;;;;;;;1.8;1.3;;;;;;;24.47;25.30273;934.3427;;;;
2022/02/04 12:38:45;;;;;;;1.5;1.2;;;;;;;25.24;24.76855;934.3782;;;;
2022/02/04 12:41:10;;;;;;;1.2;1.1;;;;;;;24.51;25.25879;934.3627;;;;
2022/02/04 12:43:39;;;;;;;1.4;1.3;;;;;;;22.96;26.96777;934.332;;;;
2022/02/04 12:46:04;;;;;;;1.5;1;;;;;;;25.04;25.1709;934.2525;;;;
2022/02/04 12:48:30;;;;;;;1.3;1.2;;;;;;;25.55;24.51465;934.1611;;;;
2022/02/04 12:50:55;;;;;;;1.4;1.3;;;;;;;27.62;22.12305;934.1535;;;;
2022/02/04 12:53:27;;;;;;;1.3;1.2;;;;;;;29.27;20.13184;934.1145;;;;
2022/02/04 12:56:04;;;;;;;2;1.4;;;;;;;29.71;19.5791;934.045;;;;
2022/02/04 12:58:41;;;;;;;1.8;1.2;;;;;;;30.07;19.14063;934.0247;;;;
2022/02/04 13:03:17;;;;;;;1.5;1.4;;;;;;;29.93;19.20605;933.8627;;;;
2022/02/04 13:08:12;;;;;;;2.1;1.8;;;;;;;28.88;19.91211;933.8957;;;;
2022/02/04 13:10:28;;;;;;;1.7;1.6;;;;;;;27.79;21.00391;933.8412;;;;
2022/02/04 13:12:54;;;;;;;2.1;1.4;;;;;;;28.41;20.35449;933.8276;;;;
2022/02/04 13:15:24;;;;;;;1.5;1.4;;;;;;;26.75;22.06836;933.8055;;;;
2022/02/04 13:17:56;;;;;;;1.5;1.4;;;;;;;27.11;22.00293;933.6941;;;;
2022/02/04 13:20:25;;;;;;;2;1.6;;;;;;;28.66;20.77051;933.7311;;;;
2022/02/04 13:22:51;;;;;;;1.4;1.2;;;;;;;29.93;19.31445;933.7424;;;;
2022/02/04 13:25:22;;;;;;;1.8;1.4;;;;;;;30.56;18.52832;933.6549;;;;
2022/02/04 13:27:51;;;;;;;1.7;1.5;;;;;;;29.06;19.62207;933.6764;;;;
2022/02/04 13:30:16;;;;;;;2.4;2.1;;;;;;;28.91;19.88867;933.6758;;;;
2022/02/04 13:32:41;;;;;;;2.2;2;;;;;;;29.59;19.27539;933.6481;;;;
2022/02/04 13:35:10;;;;;;;2.8;2;;;;;;;29.52;19.07031;933.6649;;;;
2022/02/04 13:37:37;;;;;;;2.3;2.1;;;;;;;29.3;19.59668;933.6733;;;;
2022/02/04 13:40:02;;;;;;;2.2;2;;;;;;;29.84;19.46484;933.7031;;;;
2022/02/04 13:42:29;;;;;;;3.2;2.2;;;;;;;29.58;19.58496;933.7042;;;;
2022/02/04 13:44:54;;;;;;;3;2.3;;;;;;;29.46;19.61523;933.7054;;;;
2022/02/04 13:47:22;;;;;;;2.3;2.1;;;;;;;29.08;19.96777;933.7849;;;;
2022/02/04 13:49:57;;;;;;;2.4;2.2;;;;;;;28.97;20.03516;933.747;;;;
2022/02/04 13:52:08;;;;;;;2;1.7;;;;;;;27.05;22.22559;933.7224;;;;
2022/02/04 13:54:50;;;;;;;2.3;2;;;;;;;24.23;24.61816;933.7544;;;;
2022/02/04 13:57:00;;;;;;;1.7;1.6;;;;;;;22.32;27.37402;933.6578;;;;
2022/02/04 13:59:33;;;;;;;1.9;1.6;;;;;;;20.48;29.9248;933.6819;;;;
2022/02/04 14:01:57;;;;;;;1.7;1.4;;;;;;;19.36;31.95801;933.7336;;;;
2022/02/04 14:04:20;;;;;;;1.5;1.4;;;;;;;18.68;33.54883;933.6953;;;;
2022/02/04 14:06:46;;;;;;;2;1.6;;;;;;;19.21;32.50586;933.6306;;;;
2022/02/04 14:09:17;;;;;;;3.4;2.1;;;;;;;19.13;33.01172;933.6058;;;;
2022/02/04 14:11:39;;;;;;;2.4;1.9;;;;;;;19.91;31.86816;933.645;;;;
2022/02/04 14:14:07;;;;;;;2;1.8;;;;;;;21.13;29.83887;933.594;;;;
2022/02/04 14:16:33;;;;;;;3.8;1.8;;;;;;;21.8;29.19336;933.5634;;;;
2022/02/04 14:19:02;;;;;;;2.1;1.9;;;;;;;22.47;28.56934;933.5865;;;;
2022/02/04 14:21:27;;;;;;;2.5;2.3;;;;;;;22.86;27.58398;933.5595;;;;
2022/02/04 14:23:58;;;;;;;2.8;2.4;;;;;;;23.01;27.62891;933.5064;;;;
2022/02/04 14:26:24;;;;;;;2.9;2.3;;;;;;;24.35;25.79102;933.4844;;;;
2022/02/04 14:28:50;;;;;;;3.1;2.4;;;;;;;23.57;26.38184;933.4949;;;;
2022/02/04 14:31:16;;;;;;;2.9;2.4;;;;;;;23;27.63965;933.4102;;;;
2022/02/04 14:36:06;;;;;;;3.7;2.7;;;;;;;24.42;25.72461;933.4213;;;;
2022/02/04 14:51:21;;;;;;;3.5;3.2;;;;;;;24.83;25.74805;933.4617;;;;
2022/02/04 14:53:06;;;;;;;3.3;3;;;;;;;23.63;26.94922;933.454;;;;
2022/02/04 15:00:34;;;;;;;3.8;3.1;;;;;;;23.5;27.81152;933.5184;;;;
2022/02/04 15:02:59;;;;;;;5.9;3.1;;;;;;;23.59;27.45313;933.4476;;;;
2022/02/04 15:05:20;;;;;;;4.4;3;;;;;;;23.74;27.00293;933.4561;;;;
2022/02/04 15:07:44;;;;;;;5.2;2.9;;;;;;;23.54;27.23828;933.4547;;;;
2022/02/04 15:10:17;;;;;;;4.1;2.6;;;;;;;22.65;29.2373;933.4144;;;;
2022/02/04 15:12:39;;;;;;;2;1.8;;;;;;;21.86;30.0293;933.4183;;;;
2022/02/04 15:15:13;;;;;;;3;2.3;;;;;;;20.24;32.45313;933.4434;;;;
2022/02/04 15:17:43;;;;;;;3.1;2.2;;;;;;;19.87;32.4375;933.3982;;;;
2022/02/04 15:20:09;;;;;;;3.4;2.5;;;;;;;17.23;38.42383;933.3767;;;;
2022/02/04 15:22:39;;;;;;;3.8;2.5;;;;;;;14.7;44.12695;933.5239;;;;
2022/02/04 15:25:19;;;;;;;3.5;2.5;;;;;;;14.14;44.3584;933.4451;;;;
2022/02/04 15:27:40;;;;;;;4.5;3;;;;;;;13.15;48.76074;933.4055;;;;
2022/02/04 15:30:03;;;;;;;7.1;4.3;;;;;;;12.57;50.02637;933.4296;;;;
2022/02/04 15:32:29;;;;;;;8.5;5.2;;;;;;;12.03;51.71777;933.356;;;;
2022/02/04 15:34:56;;;;;;;6;4.6;;;;;;;10.32;58.47559;933.4303;;;;
2022/02/04 15:37:21;;;;;;;7.5;4;;;;;;;10.32;58.64648;933.4231;;;;
2022/02/04 15:39:49;;;;;;;8.1;3.8;;;;;;;10;60.0166;933.4412;;;;
2022/02/04 15:42:15;;;;;;;5.4;3.8;;;;;;;9.73;59.92285;933.4517;;;;
2022/02/04 15:44:57;;;;;;;5.5;4;;;;;;;9.6;60.15527;933.4445;;;;
2022/02/04 15:47:23;;;;;;;8;5.8;;;;;;;9.59;61.39551;933.5446;;;;
2022/02/04 15:49:54;;;;;;;6.5;5;;;;;;;9.33;62.86133;933.5301;;;;
2022/02/04 15:54:40;;;;;;;5.5;4.7;;;;;;;8.75;63.78711;933.5591;;;;
2022/02/04 15:56:58;;;;;;;8.6;5.7;;;;;;;8.52;66.28809;933.5901;;;;
2022/02/04 15:59:39;;;;;;;9.3;6.7;;;;;;;8.37;66.84375;933.5876;;;;
2022/02/04 16:01:58;;;;;;;13.2;10.3;;;;;;;8.23;66.55176;933.6002;;;;
2022/02/04 16:04:23;;;;;;;12.3;8.6;;;;;;;8.03;68.00586;933.6103;;;;
2022/02/04 16:06:30;;;;;;;6.4;4.5;;;;;;;7.98;68.07813;933.5237;;;;
2022/02/04 16:08:57;;;;;;;6;4.3;;;;;;;7.68;69.55078;933.669;;;;
2022/02/04 16:13:56;;;;;;;19.9;14.5;;;;;;;7.39;69.84375;933.6859;;;;
2022/02/04 16:16:27;;;;;;;15.5;11.6;;;;;;;7.24;70.14746;933.6933;;;;
2022/02/04 16:18:58;;;;;;;25.8;18.8;;;;;;;7.17;69.89941;933.6383;;;;
2022/02/04 16:21:17;;;;;;;31.7;23;;;;;;;7.1;71.43945;933.7441;;;;
2022/02/04 16:23:52;;;;;;;21.3;14.9;;;;;;;6.96;71.46191;933.6697;;;;
2022/02/04 16:26:25;;;;;;;10.3;7.5;;;;;;;6.98;71.65723;933.6953;;;;
2022/02/04 16:28:41;;;;;;;6.7;4.7;;;;;;;6.97;71.90332;933.6587;;;;
2022/02/04 16:31:05;;;;;;;7.6;5.1;;;;;;;6.79;71.8623;933.6231;;;;
2022/02/04 16:33:30;;;;;;;6.2;5.2;;;;;;;6.76;72.97754;933.663;;;;
2022/02/04 16:36:06;;;;;;;8.8;5.8;;;;;;;6.52;73.33203;933.707;;;;
2022/02/04 16:38:25;;;;;;;5.5;4.6;;;;;;;6.43;73.22754;933.7751;;;;
2022/02/04 16:40:53;;;;;;;7.3;5.4;;;;;;;6.18;75.29785;933.7717;;;;
2022/02/04 16:43:15;;;;;;;11.2;5.8;;;;;;;5.71;76.73828;933.8067;;;;
2022/02/04 16:45:42;;;;;;;6.7;4.6;;;;;;;5.66;77.2959;933.767;;;;
2022/02/04 16:48:08;;;;;;;6.5;4.9;;;;;;;5.61;77.7168;933.8143;;;;
2022/02/04 16:50:38;;;;;;;11.2;7.6;;;;;;;5.49;77.79395;933.7292;;;;
2022/02/04 16:53:02;;;;;;;6.6;5.3;;;;;;;5.56;77.47949;933.7039;;;;
2022/02/04 16:55:30;;;;;;;8.5;6;;;;;;;5.59;77.27148;933.7771;;;;
2022/02/04 16:57:56;;;;;;;10.4;6;;;;;;;5.54;77.58887;933.7216;;;;
2022/02/04 17:00:27;;;;;;;10.3;6.7;;;;;;;5.49;77.66992;933.8161;;;;
2022/02/04 17:02:53;;;;;;;10.4;6.7;;;;;;;5.53;77.75488;933.8019;;;;
2022/02/04 17:05:18;;;;;;;12.6;7.3;;;;;;;5.54;77.76953;933.8456;;;;
2022/02/04 17:07:53;;;;;;;11.3;7.3;;;;;;;5.54;77.52148;933.7967;;;;
2022/02/04 17:10:19;;;;;;;11.2;6.9;;;;;;;5.44;77.59375;933.902;;;;
2022/02/04 17:12:48;;;;;;;10.7;7.1;;;;;;;5.45;77.68555;933.9085;;;;
2022/02/04 17:15:19;;;;;;;15.5;9.5;;;;;;;5.41;77.89355;933.8625;;;;
2022/02/04 17:17:44;;;;;;;25.1;15.1;;;;;;;5.33;78.23926;933.8228;;;;
2022/02/04 17:20:18;;;;;;;20.1;13.8;;;;;;;5.26;78.62109;933.8007;;;;
2022/02/04 17:22:48;;;;;;;27.8;18.3;;;;;;;5.29;78.31055;933.8281;;;;
2022/02/04 17:25:26;;;;;;;34;21.2;;;;;;;5.12;78.6416;933.892;;;;
2022/02/04 17:27:45;;;;;;;51.2;34;;;;;;;4.96;79.33301;933.9117;;;;
2022/02/04 17:30:16;;;;;;;31.6;21.9;;;;;;;4.83;79.63477;934.019;;;;
2022/02/04 17:32:43;;;;;;;29.9;19.4;;;;;;;4.89;79.33203;934.0443;;;;
2022/02/04 17:35:08;;;;;;;38.4;25.8;;;;;;;4.74;80.02344;934.015;;;;
2022/02/04 17:37:51;;;;;;;22.5;15.9;;;;;;;4.61;80.69727;933.9811;;;;
2022/02/04 17:40:13;;;;;;;19.1;12.5;;;;;;;4.31;81.21484;933.9534;;;;
2022/02/04 17:42:41;;;;;;;13.6;8.8;;;;;;;4.37;81.50879;934.126;;;;
2022/02/04 17:45:06;;;;;;;12.8;8.8;;;;;;;4.2;82.30664;934.1283;;;;
2022/02/04 17:47:32;;;;;;;13.2;7.9;;;;;;;3.98;82.91699;934.1497;;;;
2022/02/04 17:50:01;;;;;;;17;12.5;;;;;;;3.88;83.11133;934.173;;;;
2022/02/04 17:52:26;;;;;;;33.5;25.9;;;;;;;3.95;83.03516;934.1057;;;;
2022/02/04 17:54:54;;;;;;;20.3;15.9;;;;;;;3.69;83.80469;934.1856;;;;
2022/02/04 17:57:17;;;;;;;20.5;15;;;;;;;3.71;83.88672;934.1616;;;;
2022/02/04 18:00:10;;;;;;;17.3;12.4;;;;;;;3.7;84.04199;934.1337;;;;
2022/02/04 18:02:12;;;;;;;18.7;14.2;;;;;;;3.89;82.93457;934.1119;;;;
2022/02/04 18:07:08;;;;;;;16.8;11.7;;;;;;;3.87;83.19922;934.2814;;;;
2022/02/04 18:09:23;;;;;;;20.5;16.4;;;;;;;3.55;83.87891;934.3299;;;;
2022/02/04 18:11:52;;;;;;;15.5;11.4;;;;;;;3.64;83.77148;934.3455;;;;
2022/02/04 18:14:17;;;;;;;9.1;7.4;;;;;;;3.49;84.27051;934.4132;;;;
2022/02/04 18:16:44;;;;;;;12;8.2;;;;;;;3.6;84.16895;934.4652;;;;
2022/02/04 18:19:12;;;;;;;10.8;7.4;;;;;;;3.54;84.59375;934.428;;;;
2022/02/04 18:21:37;;;;;;;12.9;8.4;;;;;;;3.6;84.39551;934.4913;;;;
2022/02/04 18:24:07;;;;;;;14.4;8.4;;;;;;;3.57;84.02832;934.4542;;;;
2022/02/04 18:26:32;;;;;;;10.4;7.1;;;;;;;3.54;83.12305;934.4257;;;;
2022/02/04 18:28:59;;;;;;;7.4;5.7;;;;;;;3.6;83.19141;934.5242;;;;
2022/02/04 18:31:26;;;;;;;8.1;4.7;;;;;;;3.62;83.5;934.5198;;;;
2022/02/04 18:33:50;;;;;;;8.4;5.3;;;;;;;;;;;;;
2022/02/04 18:36:15;;;;;;;7.8;5.4;;;;;;;;;;;;;
2022/02/04 18:38:48;;;;;;;8.2;6.6;;;;;;;;;;;;;
2022/02/04 18:43:42;;;;;;;11.8;7.8;;;;;;;;;;;;;
2022/02/04 18:46:01;;;;;;;9.1;6.4;;;;;;;;;;;;;
2022/02/04 18:48:24;;;;;;;7.7;6;;;;;;;;;;;;;
2022/02/04 18:51:02;;;;;;;9.1;6.9;;;;;;;;;;;;;
2022/02/04 18:53:29;;;;;;;13.6;9.4;;;;;;;;;;;;;
2022/02/04 18:56:00;;;;;;;11.3;8.4;;;;;;;;;;;;;
2022/02/04 18:58:02;;;;;;;12.8;8.9;;;;;;;;;;;;;
2022/02/04 19:00:27;;;;;;;14.5;9.3;;;;;;;;;;;;;
2022/02/04 19:02:53;;;;;;;13.7;8.9;;;;;;;;;;;;;
2022/02/04 19:05:23;;;;;;;12.7;8.5;;;;;;;;;;;;;
2022/02/04 19:07:50;;;;;;;12.2;9;;;;;;;;;;;;;
2022/02/04 19:10:09;;;;;;;13;9.1;;;;;;;;;;;;;